Time;durP1;ratioP1;P1;durP2;ratioP2;P2;SDS_P1;SDS_P2;PMS_P1;PMS_P2;Temp;Humidity;BMP_temperature;BMP_pressure;BME280_temperature;BME280_humidity;BME280_pressure;Samples;Min_cycle;Max_cycle;Signal;HPM_P1;HPM_P2
2023/04/07 00:00:31;;;;;;;;;;;;;;;11.47;63.83;101465.81;109466;1276;1002379;-50
2023/04/07 00:03:01;;;;;;;;;;;;;;;11.45;63.93;101462.88;110500;1276;22403;-50
2023/04/07 00:05:30;;;;;;;;;;;;;;;11.45;63.97;101466.17;110537;1271;22885;-51
2023/04/07 00:07:58;;;;;;;;;;;;;;;11.44;63.92;101467.06;110529;1269;22410;-51
2023/04/07 00:10:27;;;;;;;;;;;;;;;11.41;64.14;101469.55;109757;1273;1002814;-50
2023/04/07 00:12:55;;;;;;;;;;;;;;;11.39;64.16;101470.77;110497;1276;22418;-50
2023/04/07 00:15:23;;;;;;;;;;;;;;;11.35;64.22;101470.83;109417;1276;1002505;-51
2023/04/07 00:17:56;;;;;;;;;;;;;;;11.30;64.27;101471.94;110511;1270;22432;-50
2023/04/07 00:20:24;;;;;;;;;;;;;;;11.25;64.49;101472.88;110269;1272;22432;-51
2023/04/07 00:22:52;;;;;;;;;;;;;;;11.18;64.69;101472.79;110540;1276;23314;-51
2023/04/07 00:25:20;;;;;;;;;;;;;;;11.08;64.96;101472.75;110492;1276;22568;-50
2023/04/07 00:27:49;;;;;;;;;;;;;;;11.03;65.29;101471.09;110559;1276;22381;-50
2023/04/07 00:30:17;;;;;;;;;;;;;;;11.01;65.50;101467.29;110510;1269;23177;-50
2023/04/07 00:32:46;;;;;;;;;;;;;;;10.98;65.65;101469.58;110531;1268;22389;-50
2023/04/07 00:35:15;;;;;;;;;;;;;;;10.98;65.74;101471.50;110207;1274;23146;-50
2023/04/07 00:37:43;;;;;;;;;;;;;;;10.97;65.84;101466.81;110511;1273;22410;-50
2023/04/07 00:40:11;;;;;;;;;;;;;;;10.99;65.99;101465.58;110377;1276;22513;-50
2023/04/07 00:42:40;;;;;;;;;;;;;;;11.05;65.87;101465.85;110522;1269;22424;-50
2023/04/07 00:45:10;;;;;;;;;;;;;;;11.08;65.94;101465.13;110208;1276;23089;-51
2023/04/07 00:47:38;;;;;;;;;;;;;;;11.12;65.92;101465.77;110017;1276;22861;-50
2023/04/07 00:50:07;;;;;;;;;;;;;;;11.16;65.91;101471.09;110482;1273;23087;-51
2023/04/07 00:52:35;;;;;;;;;;;;;;;11.21;65.83;101470.85;110230;1273;23040;-50
2023/04/07 00:55:03;;;;;;;;;;;;;;;11.25;65.67;101474.43;110501;1273;22435;-50
2023/04/07 00:57:31;;;;;;;;;;;;;;;11.29;65.55;101476.64;110501;1270;22412;-50
2023/04/07 01:00:00;;;;;;;;;;;;;;;11.33;65.30;101472.42;110378;1270;22421;-51
2023/04/07 01:02:33;;;;;;;;;;;;;;;11.35;65.33;101473.27;110384;1271;22575;-50
2023/04/07 01:05:04;;;;;;;;;;;;;;;11.34;65.37;101469.10;110531;1268;23032;-51
2023/04/07 01:07:41;;;;;;;;;;;;;;;11.38;65.28;101466.96;110326;1270;23189;-51
2023/04/07 01:10:13;;;;;;;;;;;;;;;11.39;65.25;101468.35;110389;1276;22501;-50
2023/04/07 01:12:56;;;;;;;;;;;;;;;11.37;65.27;101469.06;110393;1274;23115;-50
2023/04/07 01:15:25;;;;;;;;;;;;;;;11.39;65.36;101470.44;110208;1276;22471;-50
2023/04/07 01:18:22;;;;;;;;;;;;;;;11.40;65.34;101472.67;110484;1269;22429;-51
2023/04/07 01:20:51;;;;;;;;;;;;;;;11.44;65.38;101474.89;110464;1273;22470;-50
2023/04/07 01:23:26;;;;;;;;;;;;;;;11.46;65.29;101469.30;110386;1276;22409;-50
2023/04/07 01:25:57;;;;;;;;;;;;;;;11.49;65.24;101467.16;110238;1272;22488;-51
2023/04/07 01:28:45;;;;;;;;;;;;;;;11.52;65.24;101469.40;109748;1269;1002200;-51
2023/04/07 01:31:13;;;;;;;;;;;;;;;11.54;65.20;101465.70;110504;1269;22580;-50
2023/04/07 01:33:42;;;;;;;;;;;;;;;11.57;64.99;101458.90;110492;1269;23191;-50
2023/04/07 01:36:11;;;;;;;;;;;;;;;11.58;64.96;101460.45;110228;1269;23229;-51
2023/04/07 01:38:40;;;;;;;;;;;;;;;11.60;64.83;101466.67;110455;1273;22417;-51
2023/04/07 01:41:08;;;;;;;;;;;;;;;11.61;64.75;101469.25;110182;1276;22439;-50
2023/04/07 01:43:37;;;;;;;;;;;;;;;11.64;64.67;101467.30;110502;1272;22401;-50
2023/04/07 01:46:06;;;;;;;;;;;;;;;11.66;64.55;101460.33;110372;1270;22388;-51
2023/04/07 01:48:35;;;;;;;;;;;;;;;11.63;64.38;101460.37;110455;1270;22518;-50
2023/04/07 01:51:04;;;;;;;;;;;;;;;11.58;64.37;101456.09;110505;1269;23139;-50
2023/04/07 01:53:36;;;;;;;;;;;;;;;11.56;64.33;101454.73;110360;1274;22449;-50
2023/04/07 01:56:05;;;;;;;;;;;;;;;11.52;64.47;101463.64;110314;1276;22411;-50
2023/04/07 01:58:37;;;;;;;;;;;;;;;11.52;64.63;101466.25;110328;1269;22409;-50
2023/04/07 02:01:08;;;;;;;;;;;;;;;11.55;64.77;101477.34;110356;1269;23202;-51
2023/04/07 02:03:45;;;;;;;;;;;;;;;11.56;64.95;101477.65;109731;1270;1003008;-50
2023/04/07 02:06:15;;;;;;;;;;;;;;;11.58;65.13;101471.20;110287;1270;22689;-51
2023/04/07 02:08:46;;;;;;;;;;;;;;;11.58;65.11;101464.59;110363;1276;22395;-51
2023/04/07 02:11:16;;;;;;;;;;;;;;;11.58;65.06;101471.91;110390;1269;22420;-50
2023/04/07 02:13:44;;;;;;;;;;;;;;;11.58;65.10;101477.81;110381;1276;23283;-51
2023/04/07 02:16:13;;;;;;;;;;;;;;;11.58;65.14;101477.65;110226;1273;22456;-50
2023/04/07 02:18:41;;;;;;;;;;;;;;;11.58;65.21;101482.50;110492;1272;22417;-50
2023/04/07 02:21:10;;;;;;;;;;;;;;;11.60;65.23;101482.31;109599;1277;1002939;-51
2023/04/07 02:23:38;;;;;;;;;;;;;;;11.60;65.26;101485.96;110307;1274;22484;-50
2023/04/07 02:26:06;;;;;;;;;;;;;;;11.60;65.25;101485.62;110423;1269;22439;-50
2023/04/07 02:28:35;;;;;;;;;;;;;;;11.60;65.24;101489.26;110268;1269;22445;-51
2023/04/07 02:31:03;;;;;;;;;;;;;;;11.58;65.21;101487.02;109719;1269;1002403;-51
2023/04/07 02:33:32;;;;;;;;;;;;;;;11.58;65.30;101487.38;110157;1276;320093;-50
2023/04/07 02:36:00;;;;;;;;;;;;;;;11.58;65.38;101485.99;110456;1276;22514;-50
2023/04/07 02:38:28;;;;;;;;;;;;;;;11.57;65.38;101488.08;109719;1276;1002954;-50
2023/04/07 02:40:57;;;;;;;;;;;;;;;11.55;65.53;101490.36;110489;1269;22425;-51
2023/04/07 02:43:25;;;;;;;;;;;;;;;11.55;65.52;101495.05;110494;1269;22512;-50
2023/04/07 02:45:54;;;;;;;;;;;;;;;11.55;65.45;101499.58;110187;1273;22411;-50
2023/04/07 02:48:23;;;;;;;;;;;;;;;11.55;65.50;101500.11;110371;1270;22400;-51
2023/04/07 02:50:51;;;;;;;;;;;;;;;11.53;65.49;101500.83;110370;1276;22432;-51
2023/04/07 02:53:21;;;;;;;;;;;;;;;11.56;65.48;101505.64;110474;1270;22426;-50
2023/04/07 02:55:49;;;;;;;;;;;;;;;11.56;65.58;101507.55;110459;1276;22399;-50
2023/04/07 02:58:17;;;;;;;;;;;;;;;11.56;65.47;101506.17;110462;1270;22421;-51
2023/04/07 03:00:46;;;;;;;;;;;;;;;11.56;65.52;101503.92;110362;1270;23034;-50
2023/04/07 03:03:23;;;;;;;;;;;;;;;11.53;65.55;101507.42;109591;1270;1002503;-50
2023/04/07 03:06:00;;;;;;;;;;;;;;;11.49;65.68;101507.83;110408;1270;23205;-50
2023/04/07 03:08:29;;;;;;;;;;;;;;;11.46;65.64;101506.83;110127;1273;22883;-51
2023/04/07 03:10:59;;;;;;;;;;;;;;;11.42;65.60;101507.76;109955;1276;22415;-51
2023/04/07 03:13:29;;;;;;;;;;;;;;;11.38;65.66;101509.88;110439;1270;23159;-51
2023/04/07 03:16:03;;;;;;;;;;;;;;;11.34;65.86;101515.15;110120;1276;23265;-50
2023/04/07 03:18:38;;;;;;;;;;;;;;;11.31;65.98;101520.38;110058;1279;23389;-50
2023/04/07 03:21:06;;;;;;;;;;;;;;;11.31;66.10;101523.17;110165;1279;22466;-50
2023/04/07 03:23:34;;;;;;;;;;;;;;;11.30;66.19;101529.78;110149;1273;22444;-50
2023/04/07 03:26:02;;;;;;;;;;;;;;;11.30;66.28;101529.26;110159;1271;23187;-50
2023/04/07 03:28:34;;;;;;;;;;;;;;;11.32;66.38;101534.80;110060;1276;22409;-51
2023/04/07 03:31:04;;;;;;;;;;;;;;;11.34;66.62;101531.48;110061;1276;22683;-50
2023/04/07 03:33:32;;;;;;;;;;;;;;;11.38;66.56;101531.95;110132;1279;23166;-50
2023/04/07 03:36:00;;;;;;;;;;;;;;;11.42;66.40;101532.77;110171;1276;22444;-50
2023/04/07 03:38:30;;;;;;;;;;;;;;;11.45;66.27;101536.20;110059;1276;23225;-50
2023/04/07 03:41:01;;;;;;;;;;;;;;;11.47;66.12;101537.91;110149;1279;22448;-50
2023/04/07 03:43:31;;;;;;;;;;;;;;;11.48;66.16;101546.07;110165;1271;22390;-50
2023/04/07 03:46:01;;;;;;;;;;;;;;;11.48;65.97;101543.79;110055;1279;22438;-50
2023/04/07 03:48:30;;;;;;;;;;;;;;;11.52;66.02;101547.23;110306;1276;22437;-50
2023/04/07 03:51:05;;;;;;;;;;;;;;;11.54;65.99;101547.37;110381;1276;22417;-50
2023/04/07 03:53:34;;;;;;;;;;;;;;;11.56;65.87;101553.77;110364;1269;23146;-50
2023/04/07 03:56:11;;;;;;;;;;;;;;;11.58;65.75;101552.20;110339;1269;22414;-50
2023/04/07 03:58:45;;;;;;;;;;;;;;;11.60;65.77;101549.73;109622;1270;1002983;-52
2023/04/07 04:01:18;;;;;;;;;;;;;;;11.61;65.84;101553.36;110467;1268;23178;-50
2023/04/07 04:03:47;;;;;;;;;;;;;;;11.61;65.88;101555.46;110386;1273;22436;-50
2023/04/07 04:06:35;;;;;;;;;;;;;;;11.63;65.94;101561.86;109715;1268;1002245;-50
2023/04/07 04:09:24;;;;;;;;;;;;;;;11.65;65.96;101564.95;110370;1276;22493;-52
2023/04/07 04:11:52;;;;;;;;;;;;;;;11.65;66.01;101570.16;109683;1276;1002193;-50
2023/04/07 04:14:21;;;;;;;;;;;;;;;11.65;66.03;101569.30;110156;1273;23225;-51
2023/04/07 04:16:56;;;;;;;;;;;;;;;11.65;66.05;101569.99;110245;1273;22451;-51
2023/04/07 04:19:37;;;;;;;;;;;;;;;11.64;66.03;101574.35;110389;1270;22386;-48
2023/04/07 04:22:12;;;;;;;;;;;;;;;11.64;65.91;101578.88;110380;1276;22418;-50
2023/04/07 04:24:48;;;;;;;;;;;;;;;11.62;65.94;101579.94;110357;1269;22411;-50
2023/04/07 04:27:16;;;;;;;;;;;;;;;11.60;65.97;101585.52;109595;1273;1002942;-50
2023/04/07 04:29:47;;;;;;;;;;;;;;;11.61;66.09;101591.95;110353;1269;22416;-50
2023/04/07 04:32:16;;;;;;;;;;;;;;;11.62;66.09;101595.06;110385;1270;22474;-50
2023/04/07 04:34:50;;;;;;;;;;;;;;;11.63;65.94;101593.14;110439;1270;22362;-51
2023/04/07 04:37:20;;;;;;;;;;;;;;;11.64;65.76;101595.55;110231;1273;23132;-50
2023/04/07 04:39:48;;;;;;;;;;;;;;;11.65;65.79;101595.18;110455;1276;22468;-50
2023/04/07 04:42:19;;;;;;;;;;;;;;;11.66;65.79;101597.11;110164;1269;22439;-50
2023/04/07 04:44:48;;;;;;;;;;;;;;;11.68;65.86;101600.93;110404;1269;23168;-50
2023/04/07 04:47:23;;;;;;;;;;;;;;;11.68;65.83;101601.10;109649;1270;1002830;-49
2023/04/07 04:49:52;;;;;;;;;;;;;;;11.69;65.87;101605.94;110422;1268;22433;-51
2023/04/07 04:52:20;;;;;;;;;;;;;;;11.71;65.99;101605.92;110381;1269;22425;-51
2023/04/07 04:54:51;;;;;;;;;;;;;;;11.69;66.08;101608.90;110211;1270;22452;-50
2023/04/07 04:57:19;;;;;;;;;;;;;;;11.71;66.28;101608.01;110411;1269;22383;-50
2023/04/07 04:59:48;;;;;;;;;;;;;;;11.74;66.30;101613.52;110083;1273;22407;-51
2023/04/07 05:02:17;;;;;;;;;;;;;;;11.77;66.44;101618.36;110374;1270;22384;-50
2023/04/07 05:04:45;;;;;;;;;;;;;;;11.79;66.38;101619.39;110112;1276;22446;-51
2023/04/07 05:07:23;;;;;;;;;;;;;;;11.80;66.46;101624.23;110384;1270;23222;-50
2023/04/07 05:09:55;;;;;;;;;;;;;;;11.82;66.48;101625.61;110485;1268;23301;-51
2023/04/07 05:12:24;;;;;;;;;;;;;;;11.84;66.52;101628.53;110416;1276;23114;-51
2023/04/07 05:14:58;;;;;;;;;;;;;;;11.86;66.65;101626.60;110370;1276;22401;-51
2023/04/07 05:17:27;;;;;;;;;;;;;;;11.88;66.65;101625.52;110435;1269;22424;-50
2023/04/07 05:19:57;;;;;;;;;;;;;;;11.92;66.55;101630.70;110402;1269;23153;-50
2023/04/07 05:22:40;;;;;;;;;;;;;;;11.93;66.52;101632.58;110350;1276;22465;-50
2023/04/07 05:25:15;;;;;;;;;;;;;;;11.94;66.48;101632.39;110426;1269;22407;-50
2023/04/07 05:27:44;;;;;;;;;;;;;;;11.96;66.51;101634.45;110372;1269;23014;-51
2023/04/07 05:30:21;;;;;;;;;;;;;;;11.97;66.46;101635.65;110390;1269;22433;-50
2023/04/07 05:32:51;;;;;;;;;;;;;;;11.97;66.37;101634.96;110073;1273;22440;-50
2023/04/07 05:35:45;;;;;;;;;;;;;;;11.98;66.27;101639.45;110391;1269;22490;-50
2023/04/07 05:38:15;;;;;;;;;;;;;;;11.99;66.28;101639.63;110368;1270;22436;-50
2023/04/07 05:40:44;;;;;;;;;;;;;;;12.01;66.14;101643.95;110471;1268;22395;-49
2023/04/07 05:43:15;;;;;;;;;;;;;;;12.02;66.11;101644.62;110398;1276;22399;-50
2023/04/07 05:45:44;;;;;;;;;;;;;;;12.03;66.19;101645.64;110443;1268;22484;-51
2023/04/07 05:48:12;;;;;;;;;;;;;;;12.05;66.16;101651.02;109658;1270;1006432;-51
2023/04/07 05:50:44;;;;;;;;;;;;;;;12.08;66.05;101653.58;110389;1269;22482;-48
2023/04/07 05:53:15;;;;;;;;;;;;;;;12.10;66.17;101659.63;110453;1268;23065;-51
2023/04/07 05:55:48;;;;;;;;;;;;;;;12.11;66.20;101661.20;110172;1273;22418;-50
2023/04/07 05:58:26;;;;;;;;;;;;;;;12.13;66.21;101663.42;110391;1273;22401;-50
2023/04/07 06:00:55;;;;;;;;;;;;;;;12.15;66.25;101666.53;110392;1270;22475;-51
2023/04/07 06:03:24;;;;;;;;;;;;;;;12.17;66.29;101672.94;110191;1273;23163;-51
2023/04/07 06:06:05;;;;;;;;;;;;;;;12.19;66.15;101673.94;110381;1269;22510;-48
2023/04/07 06:08:40;;;;;;;;;;;;;;;12.21;66.26;101678.09;110426;1269;22419;-52
2023/04/07 06:11:08;;;;;;;;;;;;;;;12.23;66.24;101681.21;110337;1277;22401;-50
2023/04/07 06:13:36;;;;;;;;;;;;;;;12.25;66.20;101684.31;110372;1270;22406;-50
2023/04/07 06:16:05;;;;;;;;;;;;;;;12.28;66.13;101685.32;110439;1268;22552;-51
2023/04/07 06:18:34;;;;;;;;;;;;;;;12.30;66.13;101687.90;110372;1276;23162;-50
2023/04/07 06:21:02;;;;;;;;;;;;;;;12.33;66.11;101687.00;110299;1270;23191;-50
2023/04/07 06:23:34;;;;;;;;;;;;;;;12.33;65.93;101687.50;110413;1273;22448;-51
2023/04/07 06:26:09;;;;;;;;;;;;;;;12.34;65.87;101690.11;110407;1272;22417;-49
2023/04/07 06:28:37;;;;;;;;;;;;;;;12.35;65.76;101694.78;110324;1274;22426;-51
2023/04/07 06:31:07;;;;;;;;;;;;;;;12.36;65.71;101695.64;110335;1270;22421;-51
2023/04/07 06:33:37;;;;;;;;;;;;;;;12.37;65.66;101697.89;110434;1276;23119;-50
2023/04/07 06:36:05;;;;;;;;;;;;;;;12.37;65.65;101701.02;110137;1277;22511;-51
2023/04/07 06:38:35;;;;;;;;;;;;;;;12.41;65.51;101703.92;110368;1269;22407;-50
2023/04/07 06:41:04;;;;;;;;;;;;;;;12.52;65.08;101704.09;110412;1276;22468;-48
2023/04/07 06:43:32;;;;;;;;;;;;;;;12.55;64.89;101707.20;110447;1268;22398;-50
2023/04/07 06:46:02;;;;;;;;;;;;;;;12.56;64.69;101708.41;110153;1270;22444;-50
2023/04/07 06:48:30;;;;;;;;;;;;;;;12.52;64.77;101708.64;110461;1268;23237;-51
2023/04/07 06:50:59;;;;;;;;;;;;;;;12.42;64.98;101708.08;110353;1269;23193;-50
2023/04/07 06:53:27;;;;;;;;;;;;;;;12.47;64.82;101711.82;110440;1268;23195;-50
2023/04/07 06:56:06;;;;;;;;;;;;;;;12.59;64.12;101715.83;109645;1268;1002383;-50
2023/04/07 06:58:36;;;;;;;;;;;;;;;12.57;63.85;101716.02;110468;1268;22372;-50
2023/04/07 07:01:07;;;;;;;;;;;;;;;12.53;63.68;101715.22;110417;1276;22392;-51
2023/04/07 07:03:38;;;;;;;;;;;;;;;12.54;63.52;101716.27;110474;1268;22408;-50
2023/04/07 07:06:06;;;;;;;;;;;;;;;12.57;63.05;101719.34;110421;1276;22423;-50
2023/04/07 07:08:35;;;;;;;;;;;;;;;12.64;62.39;101720.11;110437;1268;22402;-50
2023/04/07 07:11:03;;;;;;;;;;;;;;;12.66;62.01;101721.65;110415;1268;22381;-50
2023/04/07 07:13:32;;;;;;;;;;;;;;;12.65;62.05;101725.48;110432;1272;23371;-50
2023/04/07 07:16:00;;;;;;;;;;;;;;;12.65;62.13;101727.74;110451;1268;23148;-50
2023/04/07 07:18:29;;;;;;;;;;;;;;;12.63;62.30;101730.73;110435;1268;23084;-50
2023/04/07 07:20:58;;;;;;;;;;;;;;;12.63;62.61;101735.27;110407;1276;22386;-50
2023/04/07 07:23:26;;;;;;;;;;;;;;;12.62;62.77;101735.63;109491;1271;1002800;-50
2023/04/07 07:25:55;;;;;;;;;;;;;;;12.68;62.70;101737.30;110235;1276;23332;-50
2023/04/07 07:28:24;;;;;;;;;;;;;;;12.66;62.84;101738.36;109656;1269;1002250;-50
2023/04/07 07:30:52;;;;;;;;;;;;;;;12.63;63.17;101738.92;110465;1268;22414;-50
2023/04/07 07:33:21;;;;;;;;;;;;;;;12.67;63.14;101738.87;110157;1273;23101;-51
2023/04/07 07:35:50;;;;;;;;;;;;;;;12.75;62.68;101738.22;110442;1276;23216;-50
2023/04/07 07:38:21;;;;;;;;;;;;;;;12.71;62.61;101741.95;110447;1268;22437;-50
2023/04/07 07:40:49;;;;;;;;;;;;;;;12.69;62.43;101742.50;110470;1268;22545;-50
2023/04/07 07:43:20;;;;;;;;;;;;;;;12.70;62.36;101745.27;110434;1268;22428;-50
2023/04/07 07:45:48;;;;;;;;;;;;;;;12.75;62.11;101746.23;110463;1276;22418;-50
2023/04/07 07:48:17;;;;;;;;;;;;;;;12.76;61.97;101750.23;110444;1268;22431;-50
2023/04/07 07:50:47;;;;;;;;;;;;;;;12.82;61.78;101752.91;110397;1276;23249;-51
2023/04/07 07:53:15;;;;;;;;;;;;;;;12.84;61.49;101751.66;110460;1268;22399;-50
2023/04/07 07:55:44;;;;;;;;;;;;;;;12.88;61.32;101752.48;110451;1268;22418;-50
2023/04/07 07:58:13;;;;;;;;;;;;;;;12.86;61.02;101754.77;109712;1268;1002415;-50
2023/04/07 08:00:42;;;;;;;;;;;;;;;12.86;60.77;101754.27;110388;1269;23381;-50
2023/04/07 08:03:11;;;;;;;;;;;;;;;12.89;60.51;101758.04;110468;1268;22401;-51
2023/04/07 08:05:41;;;;;;;;;;;;;;;12.91;60.32;101756.44;110154;1277;23071;-50
2023/04/07 08:08:10;;;;;;;;;;;;;;;12.93;60.14;101759.90;110457;1268;23203;-50
2023/04/07 08:10:38;;;;;;;;;;;;;;;12.92;60.16;101762.86;110455;1268;22932;-50
2023/04/07 08:13:10;;;;;;;;;;;;;;;12.94;59.89;101761.08;110453;1269;23225;-50
2023/04/07 08:15:39;;;;;;;;;;;;;;;12.95;60.00;101764.04;110475;1268;22404;-49
2023/04/07 08:18:07;;;;;;;;;;;;;;;12.97;60.09;101762.97;110481;1268;22430;-50
2023/04/07 08:20:35;;;;;;;;;;;;;;;12.99;60.04;101762.75;110499;1268;22561;-49
2023/04/07 08:23:04;;;;;;;;;;;;;;;13.03;59.95;101765.83;110470;1268;22512;-49
2023/04/07 08:25:33;;;;;;;;;;;;;;;13.06;59.83;101766.66;110122;1274;22409;-49
2023/04/07 08:28:01;;;;;;;;;;;;;;;13.10;59.70;101769.23;110185;1271;22442;-50
2023/04/07 08:30:30;;;;;;;;;;;;;;;13.12;59.50;101768.16;110147;1273;22511;-49
2023/04/07 08:33:06;;;;;;;;;;;;;;;13.15;59.39;101772.99;110386;1270;22531;-49
2023/04/07 08:35:35;;;;;;;;;;;;;;;13.17;59.35;101774.88;110187;1276;22449;-49
2023/04/07 08:38:04;;;;;;;;;;;;;;;13.19;59.42;101773.97;110392;1270;22421;-49
2023/04/07 08:40:32;;;;;;;;;;;;;;;13.25;59.27;101776.84;109634;1268;1003014;-49
2023/04/07 08:43:02;;;;;;;;;;;;;;;13.30;59.17;101779.17;110351;1277;23072;-50
2023/04/07 08:45:30;;;;;;;;;;;;;;;13.32;59.25;101777.23;110477;1268;22423;-49
2023/04/07 08:47:58;;;;;;;;;;;;;;;13.34;59.26;101777.72;110165;1273;22564;-50
2023/04/07 08:50:27;;;;;;;;;;;;;;;13.37;59.57;101779.94;109716;1268;1002890;-49
2023/04/07 08:52:56;;;;;;;;;;;;;;;13.46;60.14;101779.26;110374;1276;22411;-49
2023/04/07 08:55:25;;;;;;;;;;;;;;;13.60;60.14;101785.30;110443;1276;22394;-49
2023/04/07 08:57:53;;;;;;;;;;;;;;;13.78;59.74;101783.55;110445;1268;22427;-50
2023/04/07 09:00:21;;;;;;;;;;;;;;;13.96;59.40;101785.48;110496;1268;22505;-49
2023/04/07 09:03:09;;;;;;;;;;;;;;;14.09;59.03;101787.66;110419;1268;23159;-49
2023/04/07 09:05:38;;;;;;;;;;;;;;;14.14;59.25;101793.15;110524;1268;23087;-49
2023/04/07 09:08:06;;;;;;;;;;;;;;;14.23;59.22;101789.28;110376;1276;22424;-49
2023/04/07 09:10:42;;;;;;;;;;;;;;;14.31;59.13;101789.31;110451;1268;23317;-49
2023/04/07 09:13:10;;;;;;;;;;;;;;;14.39;58.89;101787.77;110460;1268;22396;-50
2023/04/07 09:15:40;;;;;;;;;;;;;;;14.44;58.91;101784.17;110469;1276;23125;-50
2023/04/07 09:18:08;;;;;;;;;;;;;;;14.51;58.83;101781.23;109454;1276;1003202;-48
2023/04/07 09:20:55;;;;;;;;;;;;;;;14.58;58.53;101782.81;110214;1271;22905;-50
2023/04/07 09:23:28;;;;;;;;;;;;;;;14.64;58.45;101784.95;110441;1276;23099;-49
2023/04/07 09:26:00;;;;;;;;;;;;;;;14.66;58.33;101783.85;110452;1268;22420;-49
2023/04/07 09:28:41;;;;;;;;;;;;;;;14.77;58.36;101787.63;110413;1276;22452;-49
2023/04/07 09:31:09;;;;;;;;;;;;;;;14.89;58.20;101791.91;110449;1276;22413;-49
2023/04/07 09:33:38;;;;;;;;;;;;;;;15.00;57.73;101790.77;109685;1276;1003183;-50
2023/04/07 09:36:06;;;;;;;;;;;;;;;15.04;57.34;101793.48;110169;1269;22490;-50
2023/04/07 09:38:35;;;;;;;;;;;;;;;15.00;57.32;101792.35;110466;1268;23095;-49
2023/04/07 09:41:11;;;;;;;;;;;;;;;15.03;57.29;101796.30;110457;1268;23010;-50
2023/04/07 09:43:40;;;;;;;;;;;;;;;15.02;57.20;101795.08;110447;1273;22410;-50
2023/04/07 09:46:08;;;;;;;;;;;;;;;15.05;57.14;101795.38;110449;1276;22392;-49
2023/04/07 09:48:37;;;;;;;;;;;;;;;15.05;57.10;101793.44;110481;1268;22452;-49
2023/04/07 09:51:07;;;;;;;;;;;;;;;15.06;57.29;101793.43;110144;1276;22422;-50
2023/04/07 09:53:45;;;;;;;;;;;;;;;15.08;57.27;101793.91;110381;1269;23135;-49
2023/04/07 09:56:18;;;;;;;;;;;;;;;15.15;57.09;101793.02;110449;1268;22509;-50
2023/04/07 09:58:46;;;;;;;;;;;;;;;15.18;57.10;101794.17;110470;1269;22427;-49
2023/04/07 10:01:16;;;;;;;;;;;;;;;15.24;56.91;101795.09;110148;1269;22437;-50
2023/04/07 10:03:45;;;;;;;;;;;;;;;15.30;56.64;101798.44;110489;1268;22428;-50
2023/04/07 10:06:15;;;;;;;;;;;;;;;15.31;56.43;101801.19;110226;1269;23142;-50
2023/04/07 10:08:45;;;;;;;;;;;;;;;15.32;56.30;101804.67;110481;1273;22391;-50
2023/04/07 10:11:14;;;;;;;;;;;;;;;15.29;56.26;101806.48;110230;1271;22444;-49
2023/04/07 10:13:42;;;;;;;;;;;;;;;15.26;56.24;101806.91;110195;1271;22444;-50
2023/04/07 10:16:11;;;;;;;;;;;;;;;15.23;56.35;101806.98;110445;1276;22405;-49
2023/04/07 10:18:39;;;;;;;;;;;;;;;15.20;56.29;101812.65;110373;1270;22401;-49
2023/04/07 10:21:09;;;;;;;;;;;;;;;15.19;56.38;101811.46;110074;1277;22532;-50
2023/04/07 10:23:55;;;;;;;;;;;;;;;15.18;56.45;101816.20;110430;1268;23021;-49
2023/04/07 10:26:25;;;;;;;;;;;;;;;15.18;56.30;101816.90;110507;1268;22480;-49
2023/04/07 10:28:56;;;;;;;;;;;;;;;15.18;56.23;101818.64;110482;1276;23120;-49
2023/04/07 10:31:24;;;;;;;;;;;;;;;15.18;55.98;101819.17;110505;1269;22426;-50
2023/04/07 10:33:55;;;;;;;;;;;;;;;15.19;55.74;101820.88;110475;1276;22397;-49
2023/04/07 10:36:23;;;;;;;;;;;;;;;15.19;55.46;101823.86;110460;1276;23319;-50
2023/04/07 10:39:06;;;;;;;;;;;;;;;15.19;55.42;101827.71;110454;1269;22396;-50
2023/04/07 10:41:38;;;;;;;;;;;;;;;15.19;55.14;101832.07;110472;1268;23114;-50
2023/04/07 10:44:07;;;;;;;;;;;;;;;15.18;54.87;101834.39;110481;1276;22382;-49
2023/04/07 10:46:44;;;;;;;;;;;;;;;15.17;54.78;101832.30;110482;1268;23089;-50
2023/04/07 10:49:13;;;;;;;;;;;;;;;15.16;54.73;101837.41;110491;1268;22593;-50
2023/04/07 10:51:44;;;;;;;;;;;;;;;15.15;54.62;101835.66;110485;1276;22483;-49
2023/04/07 10:54:22;;;;;;;;;;;;;;;15.13;54.53;101840.80;110359;1276;22508;-49
2023/04/07 10:57:10;;;;;;;;;;;;;;;15.11;54.44;101839.63;110461;1269;22416;-49
2023/04/07 10:59:40;;;;;;;;;;;;;;;15.06;54.54;101844.10;110113;1276;22490;-50
2023/04/07 11:02:28;;;;;;;;;;;;;;;15.04;54.69;101841.36;110396;1269;23145;-49
2023/04/07 11:04:56;;;;;;;;;;;;;;;15.00;55.01;101843.89;110480;1268;22402;-49
2023/04/07 11:07:44;;;;;;;;;;;;;;;14.92;55.50;101848.79;110487;1269;23161;-50
2023/04/07 11:10:15;;;;;;;;;;;;;;;14.98;55.41;101848.48;110483;1276;22382;-50
2023/04/07 11:12:57;;;;;;;;;;;;;;;14.97;55.56;101848.85;110460;1268;22421;-50
2023/04/07 11:15:25;;;;;;;;;;;;;;;15.04;55.32;101847.98;110488;1268;23205;-49
2023/04/07 11:18:08;;;;;;;;;;;;;;;15.07;55.13;101845.83;110473;1269;22437;-49
2023/04/07 11:20:42;;;;;;;;;;;;;;;15.09;55.07;101845.95;110474;1276;23130;-49
2023/04/07 11:23:13;;;;;;;;;;;;;;;15.07;55.27;101843.90;110498;1268;22438;-49
2023/04/07 11:25:45;;;;;;;;;;;;;;;15.08;55.03;101846.67;109710;1276;1002356;-49
2023/04/07 11:28:14;;;;;;;;;;;;;;;15.10;55.14;101843.30;110498;1276;23149;-49
2023/04/07 11:31:00;;;;;;;;;;;;;;;15.11;55.26;101843.10;110487;1276;22472;-49
2023/04/07 11:33:30;;;;;;;;;;;;;;;15.14;55.25;101844.08;110510;1268;22415;-49
2023/04/07 11:35:58;;;;;;;;;;;;;;;15.18;55.43;101840.33;110474;1268;22412;-50
2023/04/07 11:38:37;;;;;;;;;;;;;;;15.23;55.40;101843.17;110507;1273;22460;-50
2023/04/07 11:41:12;;;;;;;;;;;;;;;15.28;55.19;101840.41;110518;1276;22436;-50
2023/04/07 11:43:41;;;;;;;;;;;;;;;15.32;54.95;101842.27;110523;1268;22439;-50
2023/04/07 11:46:11;;;;;;;;;;;;;;;15.35;54.56;101842.54;110236;1272;22428;-49
2023/04/07 11:48:46;;;;;;;;;;;;;;;15.34;54.42;101840.81;110477;1276;22415;-49
2023/04/07 11:51:18;;;;;;;;;;;;;;;15.31;54.34;101843.34;110491;1268;22394;-49
2023/04/07 11:53:46;;;;;;;;;;;;;;;15.26;54.52;101840.49;110500;1273;22391;-49
2023/04/07 11:56:15;;;;;;;;;;;;;;;15.23;54.60;101844.58;110529;1268;23079;-49
2023/04/07 11:58:47;;;;;;;;;;;;;;;15.18;54.92;101842.06;110514;1268;23248;-50
2023/04/07 12:01:16;;;;;;;;;;;;;;;15.15;54.77;101841.43;110230;1269;22412;-50
2023/04/07 12:04:14;;;;;;;;;;;;;;;15.10;54.87;101842.27;110494;1276;23194;-50
2023/04/07 12:06:47;;;;;;;;;;;;;;;15.06;54.96;101843.58;109925;1275;22563;-50
2023/04/07 12:09:26;;;;;;;;;;;;;;;15.04;55.19;101844.69;109938;1282;22402;-50
2023/04/07 12:11:55;;;;;;;;;;;;;;;15.02;55.37;101843.14;109917;1283;22396;-50
2023/04/07 12:14:25;;;;;;;;;;;;;;;14.99;55.10;101843.56;109941;1283;23170;-49
2023/04/07 12:16:55;;;;;;;;;;;;;;;14.88;55.28;101846.96;109916;1283;23134;-49
2023/04/07 12:19:29;;;;;;;;;;;;;;;14.87;55.18;101847.15;109944;1283;22408;-49
2023/04/07 12:21:57;;;;;;;;;;;;;;;14.88;54.98;101846.96;109941;1275;22428;-49
2023/04/07 12:24:26;;;;;;;;;;;;;;;14.88;54.92;101847.15;109919;1276;23262;-49
2023/04/07 12:26:55;;;;;;;;;;;;;;;14.88;54.71;101843.66;109917;1283;22458;-49
2023/04/07 12:29:24;;;;;;;;;;;;;;;14.94;54.65;101846.13;109922;1276;23199;-48
2023/04/07 12:31:52;;;;;;;;;;;;;;;15.01;54.52;101845.09;109935;1276;23193;-50
2023/04/07 12:34:21;;;;;;;;;;;;;;;15.08;54.43;101845.27;109165;1276;1003025;-49
2023/04/07 12:36:50;;;;;;;;;;;;;;;15.17;54.24;101845.58;109859;1280;22444;-49
2023/04/07 12:39:18;;;;;;;;;;;;;;;15.24;53.83;101849.43;109926;1277;23098;-48
2023/04/07 12:41:48;;;;;;;;;;;;;;;15.29;53.56;101847.77;109928;1278;23236;-49
2023/04/07 12:44:16;;;;;;;;;;;;;;;15.34;53.41;101848.69;110437;1268;22432;-49